sensor_id;sensor_type;location;lat;lon;timestamp;temperature;humidity
18126;DHT22;53956;52.442;13.284;2023-04-01T00:02:26;14.00;99.90
18126;DHT22;53956;52.442;13.284;2023-04-01T00:04:53;14.10;99.90
18126;DHT22;53956;52.442;13.284;2023-04-01T00:07:20;14.00;99.90
18126;DHT22;53956;52.442;13.284;2023-04-01T00:09:47;14.00;99.90
18126;DHT22;53956;52.442;13.284;2023-04-01T00:12:14;13.90;99.90
18126;DHT22;53956;52.442;13.284;2023-04-01T00:14:43;14.00;99.90
18126;DHT22;53956;52.442;13.284;2023-04-01T00:17:10;13.90;99.90
18126;DHT22;53956;52.442;13.284;2023-04-01T00:19:36;14.10;99.90
18126;DHT22;53956;52.442;13.284;2023-04-01T00:22:03;14.00;99.90
18126;DHT22;53956;52.442;13.284;2023-04-01T00:24:30;14.00;99.90
18126;DHT22;53956;52.442;13.284;2023-04-01T00:26:57;14.00;99.90
18126;DHT22;53956;52.442;13.284;2023-04-01T00:29:24;14.00;99.90
18126;DHT22;53956;52.442;13.284;2023-04-01T00:31:56;14.10;99.90
18126;DHT22;53956;52.442;13.284;2023-04-01T00:34:23;14.00;99.90
18126;DHT22;53956;52.442;13.284;2023-04-01T00:36:50;13.90;99.90
18126;DHT22;53956;52.442;13.284;2023-04-01T00:39:17;14.00;99.90
18126;DHT22;53956;52.442;13.284;2023-04-01T00:41:44;14.00;99.90
18126;DHT22;53956;52.442;13.284;2023-04-01T00:44:15;13.90;99.90
18126;DHT22;53956;52.442;13.284;2023-04-01T00:46:43;13.90;99.90
18126;DHT22;53956;52.442;13.284;2023-04-01T00:49:12;13.90;99.90
18126;DHT22;53956;52.442;13.284;2023-04-01T00:51:41;14.00;99.90
18126;DHT22;53956;52.442;13.284;2023-04-01T00:54:09;13.90;99.90
18126;DHT22;53956;52.442;13.284;2023-04-01T00:56:38;14.00;99.90
18126;DHT22;53956;52.442;13.284;2023-04-01T00:59:10;14.00;99.90
18126;DHT22;53956;52.442;13.284;2023-04-01T01:01:37;13.90;99.90
18126;DHT22;53956;52.442;13.284;2023-04-01T01:04:04;13.90;99.90
18126;DHT22;53956;52.442;13.284;2023-04-01T01:06:42;13.90;99.90
18126;DHT22;53956;52.442;13.284;2023-04-01T01:09:23;13.90;99.90
18126;DHT22;53956;52.442;13.284;2023-04-01T01:11:55;13.90;99.90
18126;DHT22;53956;52.442;13.284;2023-04-01T01:14:32;13.90;99.90
18126;DHT22;53956;52.442;13.284;2023-04-01T01:17:09;13.90;99.90
18126;DHT22;53956;52.442;13.284;2023-04-01T01:19:52;13.90;99.90
18126;DHT22;53956;52.442;13.284;2023-04-01T01:22:37;13.90;99.90
18126;DHT22;53956;52.442;13.284;2023-04-01T01:25:25;13.90;99.90
18126;DHT22;53956;52.442;13.284;2023-04-01T01:28:02;14.00;99.90
18126;DHT22;53956;52.442;13.284;2023-04-01T01:30:39;13.90;99.90
18126;DHT22;53956;52.442;13.284;2023-04-01T01:33:23;14.00;99.90
18126;DHT22;53956;52.442;13.284;2023-04-01T01:35:54;14.00;99.90
18126;DHT22;53956;52.442;13.284;2023-04-01T01:38:24;14.00;99.90
18126;DHT22;53956;52.442;13.284;2023-04-01T01:40:59;14.00;99.90
18126;DHT22;53956;52.442;13.284;2023-04-01T01:43:30;14.00;99.90
18126;DHT22;53956;52.442;13.284;2023-04-01T01:46:03;13.90;99.90
18126;DHT22;53956;52.442;13.284;2023-04-01T01:48:31;13.80;99.90
18126;DHT22;53956;52.442;13.284;2023-04-01T01:50:59;13.80;99.90
18126;DHT22;53956;52.442;13.284;2023-04-01T01:53:26;13.90;99.90
18126;DHT22;53956;52.442;13.284;2023-04-01T01:55:53;14.00;99.90
18126;DHT22;53956;52.442;13.284;2023-04-01T01:58:23;13.80;99.90
18126;DHT22;53956;52.442;13.284;2023-04-01T02:00:54;13.90;99.90
18126;DHT22;53956;52.442;13.284;2023-04-01T02:03:23;13.90;99.90
18126;DHT22;53956;52.442;13.284;2023-04-01T02:05:53;13.90;99.90
18126;DHT22;53956;52.442;13.284;2023-04-01T02:08:25;13.80;99.90
18126;DHT22;53956;52.442;13.284;2023-04-01T02:10:59;13.90;99.90
18126;DHT22;53956;52.442;13.284;2023-04-01T02:13:35;13.90;99.90
18126;DHT22;53956;52.442;13.284;2023-04-01T02:16:11;13.80;99.90
18126;DHT22;53956;52.442;13.284;2023-04-01T02:18:39;13.90;99.90
18126;DHT22;53956;52.442;13.284;2023-04-01T02:21:07;13.70;99.90
18126;DHT22;53956;52.442;13.284;2023-04-01T02:23:37;13.80;99.90
18126;DHT22;53956;52.442;13.284;2023-04-01T02:26:05;13.80;99.90
18126;DHT22;53956;52.442;13.284;2023-04-01T02:28:33;13.90;99.90
18126;DHT22;53956;52.442;13.284;2023-04-01T02:31:01;13.80;99.90
18126;DHT22;53956;52.442;13.284;2023-04-01T02:33:28;13.90;99.90
18126;DHT22;53956;52.442;13.284;2023-04-01T02:35:56;13.80;99.90
18126;DHT22;53956;52.442;13.284;2023-04-01T02:38:23;13.90;99.90
18126;DHT22;53956;52.442;13.284;2023-04-01T02:40:57;13.90;99.90
18126;DHT22;53956;52.442;13.284;2023-04-01T02:43:24;13.90;99.90
18126;DHT22;53956;52.442;13.284;2023-04-01T02:45:51;13.80;99.90
18126;DHT22;53956;52.442;13.284;2023-04-01T02:48:18;13.80;99.90
18126;DHT22;53956;52.442;13.284;2023-04-01T02:50:44;13.90;99.90
18126;DHT22;53956;52.442;13.284;2023-04-01T02:53:11;13.80;99.90
18126;DHT22;53956;52.442;13.284;2023-04-01T02:55:38;13.80;99.90
18126;DHT22;53956;52.442;13.284;2023-04-01T02:58:07;13.80;99.90
18126;DHT22;53956;52.442;13.284;2023-04-01T03:00:34;13.90;99.90
18126;DHT22;53956;52.442;13.284;2023-04-01T03:03:00;13.80;99.90
18126;DHT22;53956;52.442;13.284;2023-04-01T03:05:28;13.80;99.90
18126;DHT22;53956;52.442;13.284;2023-04-01T03:07:54;13.80;99.90
18126;DHT22;53956;52.442;13.284;2023-04-01T03:10:22;13.80;99.90
18126;DHT22;53956;52.442;13.284;2023-04-01T03:12:48;13.80;99.90
18126;DHT22;53956;52.442;13.284;2023-04-01T03:15:17;13.70;99.90
18126;DHT22;53956;52.442;13.284;2023-04-01T03:17:43;13.90;99.90
18126;DHT22;53956;52.442;13.284;2023-04-01T03:20:12;13.80;99.90
18126;DHT22;53956;52.442;13.284;2023-04-01T03:22:40;13.80;99.90
18126;DHT22;53956;52.442;13.284;2023-04-01T03:25:08;13.80;99.90
18126;DHT22;53956;52.442;13.284;2023-04-01T03:27:35;13.80;99.90
18126;DHT22;53956;52.442;13.284;2023-04-01T03:30:02;13.70;99.90
18126;DHT22;53956;52.442;13.284;2023-04-01T03:32:30;13.80;99.90
18126;DHT22;53956;52.442;13.284;2023-04-01T03:34:57;13.80;99.90
18126;DHT22;53956;52.442;13.284;2023-04-01T03:37:24;13.80;99.90
18126;DHT22;53956;52.442;13.284;2023-04-01T03:39:51;13.90;99.90
18126;DHT22;53956;52.442;13.284;2023-04-01T03:42:18;13.80;99.90
18126;DHT22;53956;52.442;13.284;2023-04-01T03:44:45;13.80;99.90
18126;DHT22;53956;52.442;13.284;2023-04-01T03:47:12;13.80;99.90
18126;DHT22;53956;52.442;13.284;2023-04-01T03:49:40;13.80;99.90
18126;DHT22;53956;52.442;13.284;2023-04-01T03:52:09;13.80;99.90
18126;DHT22;53956;52.442;13.284;2023-04-01T03:54:36;13.80;99.90
18126;DHT22;53956;52.442;13.284;2023-04-01T03:57:02;13.70;99.90
18126;DHT22;53956;52.442;13.284;2023-04-01T03:59:29;13.80;99.90
18126;DHT22;53956;52.442;13.284;2023-04-01T04:01:56;13.70;99.90
18126;DHT22;53956;52.442;13.284;2023-04-01T04:04:23;13.70;99.90
18126;DHT22;53956;52.442;13.284;2023-04-01T04:06:51;13.80;99.90
18126;DHT22;53956;52.442;13.284;2023-04-01T04:09:20;13.80;99.90
18126;DHT22;53956;52.442;13.284;2023-04-01T04:11:47;13.80;99.90
18126;DHT22;53956;52.442;13.284;2023-04-01T04:14:14;13.80;99.90
18126;DHT22;53956;52.442;13.284;2023-04-01T04:16:40;13.80;99.90
18126;DHT22;53956;52.442;13.284;2023-04-01T04:19:07;13.80;99.90
18126;DHT22;53956;52.442;13.284;2023-04-01T04:21:34;13.80;99.90
18126;DHT22;53956;52.442;13.284;2023-04-01T04:24:03;13.80;99.90
18126;DHT22;53956;52.442;13.284;2023-04-01T04:26:49;13.80;99.90
18126;DHT22;53956;52.442;13.284;2023-04-01T04:29:16;13.80;99.90
18126;DHT22;53956;52.442;13.284;2023-04-01T04:31:44;13.70;99.90
18126;DHT22;53956;52.442;13.284;2023-04-01T04:34:11;13.80;99.90
18126;DHT22;53956;52.442;13.284;2023-04-01T04:36:38;13.90;99.90
18126;DHT22;53956;52.442;13.284;2023-04-01T04:39:06;13.80;99.90
18126;DHT22;53956;52.442;13.284;2023-04-01T04:41:37;13.90;99.90
18126;DHT22;53956;52.442;13.284;2023-04-01T04:44:04;13.90;99.90
18126;DHT22;53956;52.442;13.284;2023-04-01T04:46:31;13.80;99.90
18126;DHT22;53956;52.442;13.284;2023-04-01T04:49:08;13.90;99.90
18126;DHT22;53956;52.442;13.284;2023-04-01T04:51:35;13.90;99.90
18126;DHT22;53956;52.442;13.284;2023-04-01T04:54:02;13.90;99.90
18126;DHT22;53956;52.442;13.284;2023-04-01T04:56:44;13.90;99.90
18126;DHT22;53956;52.442;13.284;2023-04-01T04:59:11;13.90;99.90
18126;DHT22;53956;52.442;13.284;2023-04-01T05:01:47;13.90;99.90
18126;DHT22;53956;52.442;13.284;2023-04-01T05:04:14;13.80;99.90
18126;DHT22;53956;52.442;13.284;2023-04-01T05:06:42;13.90;99.90
18126;DHT22;53956;52.442;13.284;2023-04-01T05:09:09;13.80;99.90
18126;DHT22;53956;52.442;13.284;2023-04-01T05:11:36;13.80;99.90
18126;DHT22;53956;52.442;13.284;2023-04-01T05:14:04;13.80;99.90
18126;DHT22;53956;52.442;13.284;2023-04-01T05:16:31;13.80;99.90
18126;DHT22;53956;52.442;13.284;2023-04-01T05:18:59;13.80;99.90
18126;DHT22;53956;52.442;13.284;2023-04-01T05:21:25;13.80;99.90
18126;DHT22;53956;52.442;13.284;2023-04-01T05:23:53;13.90;99.90
18126;DHT22;53956;52.442;13.284;2023-04-01T05:26:22;13.90;99.90
18126;DHT22;53956;52.442;13.284;2023-04-01T05:28:49;13.90;99.90
18126;DHT22;53956;52.442;13.284;2023-04-01T05:31:17;13.80;99.90
18126;DHT22;53956;52.442;13.284;2023-04-01T05:33:46;13.80;99.90
18126;DHT22;53956;52.442;13.284;2023-04-01T05:36:15;13.90;99.90
18126;DHT22;53956;52.442;13.284;2023-04-01T05:38:42;14.00;99.90
18126;DHT22;53956;52.442;13.284;2023-04-01T05:41:12;13.90;99.90
18126;DHT22;53956;52.442;13.284;2023-04-01T05:43:44;13.80;99.90
18126;DHT22;53956;52.442;13.284;2023-04-01T05:46:31;13.80;99.90
18126;DHT22;53956;52.442;13.284;2023-04-01T05:49:06;13.80;99.90
18126;DHT22;53956;52.442;13.284;2023-04-01T05:51:34;13.90;99.90
18126;DHT22;53956;52.442;13.284;2023-04-01T05:54:01;14.00;99.90
18126;DHT22;53956;52.442;13.284;2023-04-01T05:56:27;13.90;99.90
18126;DHT22;53956;52.442;13.284;2023-04-01T05:58:55;14.00;99.90
18126;DHT22;53956;52.442;13.284;2023-04-01T06:01:23;13.90;99.90
18126;DHT22;53956;52.442;13.284;2023-04-01T06:03:51;14.00;99.90
18126;DHT22;53956;52.442;13.284;2023-04-01T06:06:23;14.00;99.90
18126;DHT22;53956;52.442;13.284;2023-04-01T06:08:53;14.10;99.90
18126;DHT22;53956;52.442;13.284;2023-04-01T06:11:31;14.10;99.90
18126;DHT22;53956;52.442;13.284;2023-04-01T06:14:07;14.10;99.90
18126;DHT22;53956;52.442;13.284;2023-04-01T06:16:58;14.10;99.90
18126;DHT22;53956;52.442;13.284;2023-04-01T06:19:40;14.10;99.90
18126;DHT22;53956;52.442;13.284;2023-04-01T06:22:30;14.20;99.90
18126;DHT22;53956;52.442;13.284;2023-04-01T06:25:28;14.10;99.90
18126;DHT22;53956;52.442;13.284;2023-04-01T06:28:11;14.20;99.90
18126;DHT22;53956;52.442;13.284;2023-04-01T06:30:45;14.30;99.90
18126;DHT22;53956;52.442;13.284;2023-04-01T06:33:35;14.20;99.90
18126;DHT22;53956;52.442;13.284;2023-04-01T06:36:18;14.30;99.90
18126;DHT22;53956;52.442;13.284;2023-04-01T06:39:04;14.30;99.90
18126;DHT22;53956;52.442;13.284;2023-04-01T06:44:30;14.40;99.90
18126;DHT22;53956;52.442;13.284;2023-04-01T06:47:28;14.30;99.90
18126;DHT22;53956;52.442;13.284;2023-04-01T06:50:28;14.40;99.90
18126;DHT22;53956;52.442;13.284;2023-04-01T06:53:26;14.50;99.90
18126;DHT22;53956;52.442;13.284;2023-04-01T06:56:37;14.50;99.90
18126;DHT22;53956;52.442;13.284;2023-04-01T06:59:15;14.50;99.90
18126;DHT22;53956;52.442;13.284;2023-04-01T07:01:47;14.60;99.90
18126;DHT22;53956;52.442;13.284;2023-04-01T07:04:19;14.60;99.90
18126;DHT22;53956;52.442;13.284;2023-04-01T07:06:49;14.60;99.90
18126;DHT22;53956;52.442;13.284;2023-04-01T07:09:21;14.60;99.90
18126;DHT22;53956;52.442;13.284;2023-04-01T07:12:23;14.60;99.90
18126;DHT22;53956;52.442;13.284;2023-04-01T07:15:18;14.70;99.90
18126;DHT22;53956;52.442;13.284;2023-04-01T07:17:48;14.80;99.90
18126;DHT22;53956;52.442;13.284;2023-04-01T07:20:22;14.80;99.90
18126;DHT22;53956;52.442;13.284;2023-04-01T07:22:54;14.70;99.90
18126;DHT22;53956;52.442;13.284;2023-04-01T07:25:34;14.80;99.90
18126;DHT22;53956;52.442;13.284;2023-04-01T07:28:21;14.90;99.90
18126;DHT22;53956;52.442;13.284;2023-04-01T07:31:04;14.80;99.90
18126;DHT22;53956;52.442;13.284;2023-04-01T07:33:38;14.90;99.90
18126;DHT22;53956;52.442;13.284;2023-04-01T07:36:10;14.90;99.90
18126;DHT22;53956;52.442;13.284;2023-04-01T07:38:48;14.90;99.90
18126;DHT22;53956;52.442;13.284;2023-04-01T07:41:46;15.00;99.90
18126;DHT22;53956;52.442;13.284;2023-04-01T07:44:20;14.90;99.90
18126;DHT22;53956;52.442;13.284;2023-04-01T07:47:05;14.90;99.90
18126;DHT22;53956;52.442;13.284;2023-04-01T07:49:41;14.90;99.90
18126;DHT22;53956;52.442;13.284;2023-04-01T07:52:18;15.00;99.90
18126;DHT22;53956;52.442;13.284;2023-04-01T07:54:56;14.90;99.90
18126;DHT22;53956;52.442;13.284;2023-04-01T07:57:32;14.90;99.90
18126;DHT22;53956;52.442;13.284;2023-04-01T08:00:04;14.80;99.90
18126;DHT22;53956;52.442;13.284;2023-04-01T08:03:04;14.90;99.90
18126;DHT22;53956;52.442;13.284;2023-04-01T08:05:41;14.90;99.90
18126;DHT22;53956;52.442;13.284;2023-04-01T08:08:16;14.90;99.90
18126;DHT22;53956;52.442;13.284;2023-04-01T08:11:12;15.00;99.90
18126;DHT22;53956;52.442;13.284;2023-04-01T08:14:05;15.00;99.90
18126;DHT22;53956;52.442;13.284;2023-04-01T08:17:13;14.90;99.90
18126;DHT22;53956;52.442;13.284;2023-04-01T08:20:04;15.10;99.90
18126;DHT22;53956;52.442;13.284;2023-04-01T08:22:39;15.00;99.90
18126;DHT22;53956;52.442;13.284;2023-04-01T08:25:19;15.10;99.90
18126;DHT22;53956;52.442;13.284;2023-04-01T08:27:52;15.20;99.90
18126;DHT22;53956;52.442;13.284;2023-04-01T08:30:23;15.30;99.90
18126;DHT22;53956;52.442;13.284;2023-04-01T08:32:54;15.30;99.90
18126;DHT22;53956;52.442;13.284;2023-04-01T08:35:29;15.40;99.90
18126;DHT22;53956;52.442;13.284;2023-04-01T08:38:01;15.30;99.90
18126;DHT22;53956;52.442;13.284;2023-04-01T08:40:41;15.40;99.90
18126;DHT22;53956;52.442;13.284;2023-04-01T08:43:20;15.30;99.90
18126;DHT22;53956;52.442;13.284;2023-04-01T08:45:58;15.40;99.90
18126;DHT22;53956;52.442;13.284;2023-04-01T08:48:48;15.50;99.90
18126;DHT22;53956;52.442;13.284;2023-04-01T08:51:55;15.60;99.90
18126;DHT22;53956;52.442;13.284;2023-04-01T08:54:38;15.60;99.90
18126;DHT22;53956;52.442;13.284;2023-04-01T08:57:15;15.80;99.90
18126;DHT22;53956;52.442;13.284;2023-04-01T09:00:19;15.80;99.90
18126;DHT22;53956;52.442;13.284;2023-04-01T09:03:34;15.80;99.90
18126;DHT22;53956;52.442;13.284;2023-04-01T09:06:37;15.90;99.90
18126;DHT22;53956;52.442;13.284;2023-04-01T09:09:20;16.00;99.90
18126;DHT22;53956;52.442;13.284;2023-04-01T09:12:15;16.00;99.90
18126;DHT22;53956;52.442;13.284;2023-04-01T09:15:16;16.10;99.90
18126;DHT22;53956;52.442;13.284;2023-04-01T09:18:11;16.00;99.90
18126;DHT22;53956;52.442;13.284;2023-04-01T09:20:57;15.60;99.90
18126;DHT22;53956;52.442;13.284;2023-04-01T09:23:53;15.40;99.90
18126;DHT22;53956;52.442;13.284;2023-04-01T09:26:44;14.90;99.90
18126;DHT22;53956;52.442;13.284;2023-04-01T09:29:26;14.60;99.90
18126;DHT22;53956;52.442;13.284;2023-04-01T09:32:14;14.40;99.90
18126;DHT22;53956;52.442;13.284;2023-04-01T09:35:36;14.30;99.90
18126;DHT22;53956;52.442;13.284;2023-04-01T09:38:20;14.20;99.90
18126;DHT22;53956;52.442;13.284;2023-04-01T09:40:54;14.10;99.90
18126;DHT22;53956;52.442;13.284;2023-04-01T09:44:00;14.00;99.90
18126;DHT22;53956;52.442;13.284;2023-04-01T09:46:44;14.00;99.90
18126;DHT22;53956;52.442;13.284;2023-04-01T09:49:32;14.00;99.90
18126;DHT22;53956;52.442;13.284;2023-04-01T09:52:10;14.00;99.90
18126;DHT22;53956;52.442;13.284;2023-04-01T09:54:54;14.10;99.90
18126;DHT22;53956;52.442;13.284;2023-04-01T09:57:55;14.00;99.90
18126;DHT22;53956;52.442;13.284;2023-04-01T10:01:06;14.00;99.90
18126;DHT22;53956;52.442;13.284;2023-04-01T10:04:00;13.90;99.90
18126;DHT22;53956;52.442;13.284;2023-04-01T10:06:58;13.80;99.90
18126;DHT22;53956;52.442;13.284;2023-04-01T10:15:57;13.50;99.90
18126;DHT22;53956;52.442;13.284;2023-04-01T10:18:53;13.50;99.90
18126;DHT22;53956;52.442;13.284;2023-04-01T10:24:43;13.30;99.90
18126;DHT22;53956;52.442;13.284;2023-04-01T10:27:26;13.50;99.90
18126;DHT22;53956;52.442;13.284;2023-04-01T10:30:40;13.50;99.90
18126;DHT22;53956;52.442;13.284;2023-04-01T10:36:46;13.40;99.90
18126;DHT22;53956;52.442;13.284;2023-04-01T10:39:45;13.50;99.90
18126;DHT22;53956;52.442;13.284;2023-04-01T10:43:04;13.50;99.90
18126;DHT22;53956;52.442;13.284;2023-04-01T10:49:15;13.20;99.90
18126;DHT22;53956;52.442;13.284;2023-04-01T10:52:44;13.40;99.90
18126;DHT22;53956;52.442;13.284;2023-04-01T10:55:44;13.40;99.90
18126;DHT22;53956;52.442;13.284;2023-04-01T10:59:02;13.40;99.90
18126;DHT22;53956;52.442;13.284;2023-04-01T11:12:03;13.40;99.90
18126;DHT22;53956;52.442;13.284;2023-04-01T11:18:11;13.40;99.90
18126;DHT22;53956;52.442;13.284;2023-04-01T11:23:54;13.30;99.90
18126;DHT22;53956;52.442;13.284;2023-04-01T11:26:33;13.30;99.90
18126;DHT22;53956;52.442;13.284;2023-04-01T11:29:35;13.30;99.90
18126;DHT22;53956;52.442;13.284;2023-04-01T11:32:28;13.10;99.90
18126;DHT22;53956;52.442;13.284;2023-04-01T11:35:20;13.10;99.90
18126;DHT22;53956;52.442;13.284;2023-04-01T11:37:57;13.00;99.90
18126;DHT22;53956;52.442;13.284;2023-04-01T11:40:56;13.10;99.90
18126;DHT22;53956;52.442;13.284;2023-04-01T11:44:15;12.90;99.90
18126;DHT22;53956;52.442;13.284;2023-04-01T11:47:10;12.80;99.90
18126;DHT22;53956;52.442;13.284;2023-04-01T11:49:49;12.90;99.90
18126;DHT22;53956;52.442;13.284;2023-04-01T11:52:39;12.90;99.90
18126;DHT22;53956;52.442;13.284;2023-04-01T11:55:22;12.80;99.90
18126;DHT22;53956;52.442;13.284;2023-04-01T11:57:59;12.80;99.90
18126;DHT22;53956;52.442;13.284;2023-04-01T12:00:41;12.90;99.90
18126;DHT22;53956;52.442;13.284;2023-04-01T12:03:28;12.90;99.90
18126;DHT22;53956;52.442;13.284;2023-04-01T12:06:02;13.00;99.90
18126;DHT22;53956;52.442;13.284;2023-04-01T12:08:37;13.00;99.90
18126;DHT22;53956;52.442;13.284;2023-04-01T12:11:16;12.90;99.90
18126;DHT22;53956;52.442;13.284;2023-04-01T12:13:49;12.80;99.90
18126;DHT22;53956;52.442;13.284;2023-04-01T12:16:51;12.60;99.90
18126;DHT22;53956;52.442;13.284;2023-04-01T12:19:26;12.70;99.90
18126;DHT22;53956;52.442;13.284;2023-04-01T12:22:08;12.70;99.90
18126;DHT22;53956;52.442;13.284;2023-04-01T12:24:46;12.60;99.90
18126;DHT22;53956;52.442;13.284;2023-04-01T12:30:22;12.70;99.90
18126;DHT22;53956;52.442;13.284;2023-04-01T12:33:18;12.80;99.90
18126;DHT22;53956;52.442;13.284;2023-04-01T12:35:58;12.70;99.90
18126;DHT22;53956;52.442;13.284;2023-04-01T12:38:34;12.50;99.90
18126;DHT22;53956;52.442;13.284;2023-04-01T12:41:09;12.70;99.90
18126;DHT22;53956;52.442;13.284;2023-04-01T12:43:56;12.40;99.90
18126;DHT22;53956;52.442;13.284;2023-04-01T12:46:26;12.50;99.90
18126;DHT22;53956;52.442;13.284;2023-04-01T12:49:09;12.40;99.90
18126;DHT22;53956;52.442;13.284;2023-04-01T12:51:48;12.30;99.90
18126;DHT22;53956;52.442;13.284;2023-04-01T12:54:41;12.40;99.90
18126;DHT22;53956;52.442;13.284;2023-04-01T12:57:21;12.60;99.90
18126;DHT22;53956;52.442;13.284;2023-04-01T13:00:08;12.60;99.90
18126;DHT22;53956;52.442;13.284;2023-04-01T13:02:51;12.50;99.90
18126;DHT22;53956;52.442;13.284;2023-04-01T13:05:40;12.50;99.90
18126;DHT22;53956;52.442;13.284;2023-04-01T13:08:21;12.40;99.90
18126;DHT22;53956;52.442;13.284;2023-04-01T13:11:08;12.30;99.90
18126;DHT22;53956;52.442;13.284;2023-04-01T13:14:01;12.30;99.90
18126;DHT22;53956;52.442;13.284;2023-04-01T13:16:36;12.30;99.90
18126;DHT22;53956;52.442;13.284;2023-04-01T13:19:08;12.50;99.90
18126;DHT22;53956;52.442;13.284;2023-04-01T13:21:47;12.40;99.90
18126;DHT22;53956;52.442;13.284;2023-04-01T13:24:28;12.20;99.90
18126;DHT22;53956;52.442;13.284;2023-04-01T13:27:00;12.50;99.90
18126;DHT22;53956;52.442;13.284;2023-04-01T13:29:32;12.40;99.90
18126;DHT22;53956;52.442;13.284;2023-04-01T13:32:20;12.10;99.90
18126;DHT22;53956;52.442;13.284;2023-04-01T13:35:00;12.20;99.90
18126;DHT22;53956;52.442;13.284;2023-04-01T13:37:44;12.30;99.90
18126;DHT22;53956;52.442;13.284;2023-04-01T13:40:33;12.10;99.90
18126;DHT22;53956;52.442;13.284;2023-04-01T13:43:10;12.00;99.90
18126;DHT22;53956;52.442;13.284;2023-04-01T13:46:04;11.90;99.90
18126;DHT22;53956;52.442;13.284;2023-04-01T13:48:44;12.10;99.90
18126;DHT22;53956;52.442;13.284;2023-04-01T13:51:45;12.10;99.90
18126;DHT22;53956;52.442;13.284;2023-04-01T13:54:26;11.70;99.90
18126;DHT22;53956;52.442;13.284;2023-04-01T13:57:07;11.70;99.90
18126;DHT22;53956;52.442;13.284;2023-04-01T13:59:58;11.80;99.90
18126;DHT22;53956;52.442;13.284;2023-04-01T14:02:49;11.50;99.90
18126;DHT22;53956;52.442;13.284;2023-04-01T14:05:37;11.60;99.90
18126;DHT22;53956;52.442;13.284;2023-04-01T14:08:10;11.40;99.90
18126;DHT22;53956;52.442;13.284;2023-04-01T14:10:43;11.70;99.90
18126;DHT22;53956;52.442;13.284;2023-04-01T14:13:17;11.50;99.90
18126;DHT22;53956;52.442;13.284;2023-04-01T14:16:00;11.50;99.90
18126;DHT22;53956;52.442;13.284;2023-04-01T14:18:45;11.50;99.90
18126;DHT22;53956;52.442;13.284;2023-04-01T14:21:31;11.40;99.90
18126;DHT22;53956;52.442;13.284;2023-04-01T14:24:19;11.60;99.90
18126;DHT22;53956;52.442;13.284;2023-04-01T14:29:50;11.50;99.90
18126;DHT22;53956;52.442;13.284;2023-04-01T14:32:32;11.40;99.90
18126;DHT22;53956;52.442;13.284;2023-04-01T14:35:24;11.40;99.90
18126;DHT22;53956;52.442;13.284;2023-04-01T14:40:54;11.40;99.90
18126;DHT22;53956;52.442;13.284;2023-04-01T14:43:47;11.40;99.90
18126;DHT22;53956;52.442;13.284;2023-04-01T14:46:41;11.40;99.90
18126;DHT22;53956;52.442;13.284;2023-04-01T14:49:19;11.30;99.90
18126;DHT22;53956;52.442;13.284;2023-04-01T14:51:49;11.30;99.90
18126;DHT22;53956;52.442;13.284;2023-04-01T14:54:22;11.30;99.90
18126;DHT22;53956;52.442;13.284;2023-04-01T14:57:08;11.20;99.90
18126;DHT22;53956;52.442;13.284;2023-04-01T14:59:40;11.30;99.90
18126;DHT22;53956;52.442;13.284;2023-04-01T15:02:18;11.10;99.90
18126;DHT22;53956;52.442;13.284;2023-04-01T15:04:54;11.10;99.90
18126;DHT22;53956;52.442;13.284;2023-04-01T15:07:49;11.00;99.90
18126;DHT22;53956;52.442;13.284;2023-04-01T15:10:41;11.10;99.90
18126;DHT22;53956;52.442;13.284;2023-04-01T15:13:13;11.00;99.90
18126;DHT22;53956;52.442;13.284;2023-04-01T15:15:54;11.00;99.90
18126;DHT22;53956;52.442;13.284;2023-04-01T15:18:34;11.00;99.90
18126;DHT22;53956;52.442;13.284;2023-04-01T15:24:11;10.80;99.90
18126;DHT22;53956;52.442;13.284;2023-04-01T15:27:07;10.90;99.90
18126;DHT22;53956;52.442;13.284;2023-04-01T15:29:43;10.80;99.90
18126;DHT22;53956;52.442;13.284;2023-04-01T15:32:17;11.00;99.90
18126;DHT22;53956;52.442;13.284;2023-04-01T15:34:52;11.10;99.90
18126;DHT22;53956;52.442;13.284;2023-04-01T15:37:31;11.30;99.90
18126;DHT22;53956;52.442;13.284;2023-04-01T15:40:11;11.10;99.90
18126;DHT22;53956;52.442;13.284;2023-04-01T15:42:54;10.80;99.90
18126;DHT22;53956;52.442;13.284;2023-04-01T15:45:32;10.80;99.90
18126;DHT22;53956;52.442;13.284;2023-04-01T15:48:11;10.80;99.90
18126;DHT22;53956;52.442;13.284;2023-04-01T15:50:54;10.80;99.90
18126;DHT22;53956;52.442;13.284;2023-04-01T15:53:51;10.90;99.90
18126;DHT22;53956;52.442;13.284;2023-04-01T15:56:30;10.80;99.90
18126;DHT22;53956;52.442;13.284;2023-04-01T15:59:17;10.70;99.90
18126;DHT22;53956;52.442;13.284;2023-04-01T16:01:51;10.80;99.90
18126;DHT22;53956;52.442;13.284;2023-04-01T16:04:38;10.70;99.90
18126;DHT22;53956;52.442;13.284;2023-04-01T16:07:19;10.80;99.90
18126;DHT22;53956;52.442;13.284;2023-04-01T16:09:59;10.60;99.90
18126;DHT22;53956;52.442;13.284;2023-04-01T16:12:41;10.50;99.90
18126;DHT22;53956;52.442;13.284;2023-04-01T16:15:21;10.60;99.90
18126;DHT22;53956;52.442;13.284;2023-04-01T16:18:05;10.50;99.90
18126;DHT22;53956;52.442;13.284;2023-04-01T16:20:43;10.70;99.90
18126;DHT22;53956;52.442;13.284;2023-04-01T16:23:16;10.70;99.90
18126;DHT22;53956;52.442;13.284;2023-04-01T16:25:49;10.70;99.90
18126;DHT22;53956;52.442;13.284;2023-04-01T16:28:23;10.60;99.90
18126;DHT22;53956;52.442;13.284;2023-04-01T16:30:57;10.50;99.90
18126;DHT22;53956;52.442;13.284;2023-04-01T16:33:35;10.60;99.90
18126;DHT22;53956;52.442;13.284;2023-04-01T16:36:11;10.30;99.90
18126;DHT22;53956;52.442;13.284;2023-04-01T16:38:43;10.30;99.90
18126;DHT22;53956;52.442;13.284;2023-04-01T16:41:17;10.30;99.90
18126;DHT22;53956;52.442;13.284;2023-04-01T16:43:48;10.40;99.90
18126;DHT22;53956;52.442;13.284;2023-04-01T16:46:34;10.50;99.90
18126;DHT22;53956;52.442;13.284;2023-04-01T16:49:25;10.50;99.90
18126;DHT22;53956;52.442;13.284;2023-04-01T16:52:00;10.30;99.90
18126;DHT22;53956;52.442;13.284;2023-04-01T16:54:35;10.20;99.90
18126;DHT22;53956;52.442;13.284;2023-04-01T16:57:14;10.10;99.90
18126;DHT22;53956;52.442;13.284;2023-04-01T16:59:47;10.10;99.90
18126;DHT22;53956;52.442;13.284;2023-04-01T17:02:23;10.00;99.90
18126;DHT22;53956;52.442;13.284;2023-04-01T17:04:57;9.90;99.90
18126;DHT22;53956;52.442;13.284;2023-04-01T17:07:34;9.90;99.90
18126;DHT22;53956;52.442;13.284;2023-04-01T17:10:22;10.00;99.90
18126;DHT22;53956;52.442;13.284;2023-04-01T17:13:13;10.10;99.90